Farmerstown, Ohio
Current Conditions -  °F | °C
As of 2:53 AM on Friday 19 Dec 2014 (Local Time) from KPHD Reporting Station
Overcast Overcast  
Wind Chill: 29°   Ceiling: 1000
Heat Index: 29°   Visibility: 8mi
Dew Point: 25°   Wind: 0mph
Humidity: 85%   Direction: NA
Pressure: 30.19"   Gusts: NA
Location:  40.4489°N, 81.6949°W
Report Text: KPHD 190753Z AUTO 00000KT 8SM BKN010 OVC025 M02/M04 A3019 RMK AO2 SLP236 T10171039
Loading
Personal Weather Stations






























Interactive Weather Map New forecast layout! Learn more

10-Day Weather Forecast

Advertisements
Track Severe Weather on mobile